sensor_id;sensor_type;location;lat;lon;timestamp;P1;durP1;ratioP1;P2;durP2;ratioP2
7523;SDS011;3803;51.666;7.630;2023-04-25T00:00:01;12.95;;;7.50;;
7523;SDS011;3803;51.666;7.630;2023-04-25T00:00:32;13.85;;;7.95;;
7523;SDS011;3803;51.666;7.630;2023-04-25T00:00:53;11.93;;;8.00;;
7523;SDS011;3803;51.666;7.630;2023-04-25T00:01:13;14.60;;;8.33;;
7523;SDS011;3803;51.666;7.630;2023-04-25T00:01:34;14.25;;;7.70;;
7523;SDS011;3803;51.666;7.630;2023-04-25T00:01:56;15.23;;;7.97;;
7523;SDS011;3803;51.666;7.630;2023-04-25T00:02:17;15.60;;;8.00;;
7523;SDS011;3803;51.666;7.630;2023-04-25T00:03:26;15.00;;;7.78;;
7523;SDS011;3803;51.666;7.630;2023-04-25T00:03:47;16.53;;;7.90;;
7523;SDS011;3803;51.666;7.630;2023-04-25T00:04:08;17.13;;;7.80;;
7523;SDS011;3803;51.666;7.630;2023-04-25T00:04:29;17.17;;;7.82;;
7523;SDS011;3803;51.666;7.630;2023-04-25T00:04:50;14.60;;;7.50;;
7523;SDS011;3803;51.666;7.630;2023-04-25T00:05:10;13.95;;;6.93;;
7523;SDS011;3803;51.666;7.630;2023-04-25T00:05:31;12.32;;;6.75;;
7523;SDS011;3803;51.666;7.630;2023-04-25T00:05:52;15.13;;;7.20;;
7523;SDS011;3803;51.666;7.630;2023-04-25T00:06:13;13.43;;;7.63;;
7523;SDS011;3803;51.666;7.630;2023-04-25T00:06:34;12.45;;;7.40;;
7523;SDS011;3803;51.666;7.630;2023-04-25T00:06:56;9.88;;;7.43;;
7523;SDS011;3803;51.666;7.630;2023-04-25T00:07:17;11.57;;;7.50;;
7523;SDS011;3803;51.666;7.630;2023-04-25T00:07:38;13.18;;;7.80;;
7523;SDS011;3803;51.666;7.630;2023-04-25T00:07:59;14.90;;;7.78;;
7523;SDS011;3803;51.666;7.630;2023-04-25T00:08:20;15.73;;;7.95;;
7523;SDS011;3803;51.666;7.630;2023-04-25T00:08:40;15.57;;;7.72;;
7523;SDS011;3803;51.666;7.630;2023-04-25T00:09:02;16.35;;;7.70;;
7523;SDS011;3803;51.666;7.630;2023-04-25T00:09:23;18.70;;;7.72;;
7523;SDS011;3803;51.666;7.630;2023-04-25T00:09:44;18.33;;;7.65;;
7523;SDS011;3803;51.666;7.630;2023-04-25T00:10:05;15.07;;;7.30;;
7523;SDS011;3803;51.666;7.630;2023-04-25T00:10:26;11.57;;;7.00;;
7523;SDS011;3803;51.666;7.630;2023-04-25T00:10:47;12.37;;;6.90;;
7523;SDS011;3803;51.666;7.630;2023-04-25T00:11:08;16.23;;;7.28;;
7523;SDS011;3803;51.666;7.630;2023-04-25T00:11:29;15.10;;;7.10;;
7523;SDS011;3803;51.666;7.630;2023-04-25T00:11:51;14.60;;;7.10;;
7523;SDS011;3803;51.666;7.630;2023-04-25T00:13:29;14.60;;;7.07;;
7523;SDS011;3803;51.666;7.630;2023-04-25T00:13:50;12.77;;;7.10;;
7523;SDS011;3803;51.666;7.630;2023-04-25T00:14:10;14.07;;;7.45;;
7523;SDS011;3803;51.666;7.630;2023-04-25T00:14:31;12.52;;;7.32;;
7523;SDS011;3803;51.666;7.630;2023-04-25T00:14:54;12.75;;;7.60;;
7523;SDS011;3803;51.666;7.630;2023-04-25T00:15:17;12.60;;;7.35;;
7523;SDS011;3803;51.666;7.630;2023-04-25T00:15:37;15.88;;;7.72;;
7523;SDS011;3803;51.666;7.630;2023-04-25T00:15:58;17.58;;;8.05;;
7523;SDS011;3803;51.666;7.630;2023-04-25T00:16:20;18.10;;;7.97;;
7523;SDS011;3803;51.666;7.630;2023-04-25T00:16:40;17.13;;;8.20;;
7523;SDS011;3803;51.666;7.630;2023-04-25T00:17:04;14.27;;;7.90;;
7523;SDS011;3803;51.666;7.630;2023-04-25T00:17:24;14.00;;;7.73;;
7523;SDS011;3803;51.666;7.630;2023-04-25T00:18:03;11.95;;;7.30;;
7523;SDS011;3803;51.666;7.630;2023-04-25T00:18:24;12.70;;;7.80;;
7523;SDS011;3803;51.666;7.630;2023-04-25T00:18:44;14.63;;;8.00;;
7523;SDS011;3803;51.666;7.630;2023-04-25T00:19:11;16.55;;;8.13;;
7523;SDS011;3803;51.666;7.630;2023-04-25T00:19:33;15.63;;;7.30;;
7523;SDS011;3803;51.666;7.630;2023-04-25T00:19:54;16.77;;;7.40;;
7523;SDS011;3803;51.666;7.630;2023-04-25T00:20:16;16.40;;;8.00;;
7523;SDS011;3803;51.666;7.630;2023-04-25T00:20:36;14.80;;;8.15;;
7523;SDS011;3803;51.666;7.630;2023-04-25T00:20:57;11.32;;;7.60;;
7523;SDS011;3803;51.666;7.630;2023-04-25T00:21:18;12.68;;;7.63;;
7523;SDS011;3803;51.666;7.630;2023-04-25T00:21:39;12.27;;;7.72;;
7523;SDS011;3803;51.666;7.630;2023-04-25T00:22:00;13.57;;;7.90;;
7523;SDS011;3803;51.666;7.630;2023-04-25T00:22:21;15.05;;;7.28;;
7523;SDS011;3803;51.666;7.630;2023-04-25T00:22:41;15.25;;;7.07;;
7523;SDS011;3803;51.666;7.630;2023-04-25T00:23:02;16.10;;;7.50;;
7523;SDS011;3803;51.666;7.630;2023-04-25T00:23:22;13.98;;;7.78;;
7523;SDS011;3803;51.666;7.630;2023-04-25T00:23:44;17.35;;;8.10;;
7523;SDS011;3803;51.666;7.630;2023-04-25T00:24:06;18.38;;;8.02;;
7523;SDS011;3803;51.666;7.630;2023-04-25T00:24:27;17.00;;;7.68;;
7523;SDS011;3803;51.666;7.630;2023-04-25T00:24:48;15.57;;;8.10;;
7523;SDS011;3803;51.666;7.630;2023-04-25T00:25:08;14.80;;;8.30;;
7523;SDS011;3803;51.666;7.630;2023-04-25T00:25:29;15.55;;;8.55;;
7523;SDS011;3803;51.666;7.630;2023-04-25T00:25:50;14.60;;;8.20;;
7523;SDS011;3803;51.666;7.630;2023-04-25T00:26:11;14.38;;;7.82;;
7523;SDS011;3803;51.666;7.630;2023-04-25T00:26:33;14.02;;;7.57;;
7523;SDS011;3803;51.666;7.630;2023-04-25T00:26:54;14.38;;;7.78;;
7523;SDS011;3803;51.666;7.630;2023-04-25T00:27:15;14.20;;;7.80;;
7523;SDS011;3803;51.666;7.630;2023-04-25T00:27:36;15.43;;;7.80;;
7523;SDS011;3803;51.666;7.630;2023-04-25T00:27:57;18.35;;;8.25;;
7523;SDS011;3803;51.666;7.630;2023-04-25T00:28:18;18.10;;;8.15;;
7523;SDS011;3803;51.666;7.630;2023-04-25T00:28:39;15.23;;;7.80;;
7523;SDS011;3803;51.666;7.630;2023-04-25T00:29:00;12.45;;;7.20;;
7523;SDS011;3803;51.666;7.630;2023-04-25T00:29:20;12.85;;;7.25;;
7523;SDS011;3803;51.666;7.630;2023-04-25T00:29:41;14.83;;;7.50;;
7523;SDS011;3803;51.666;7.630;2023-04-25T00:30:02;12.70;;;7.10;;
7523;SDS011;3803;51.666;7.630;2023-04-25T00:30:23;14.15;;;7.70;;
7523;SDS011;3803;51.666;7.630;2023-04-25T00:30:43;13.60;;;7.80;;
7523;SDS011;3803;51.666;7.630;2023-04-25T00:31:04;13.43;;;7.82;;
7523;SDS011;3803;51.666;7.630;2023-04-25T00:31:25;12.37;;;7.13;;
7523;SDS011;3803;51.666;7.630;2023-04-25T00:31:45;11.05;;;7.00;;
7523;SDS011;3803;51.666;7.630;2023-04-25T00:32:06;11.77;;;7.10;;
7523;SDS011;3803;51.666;7.630;2023-04-25T00:32:26;11.50;;;7.30;;
7523;SDS011;3803;51.666;7.630;2023-04-25T00:32:47;11.32;;;6.90;;
7523;SDS011;3803;51.666;7.630;2023-04-25T00:33:09;11.50;;;7.00;;
7523;SDS011;3803;51.666;7.630;2023-04-25T00:33:30;13.73;;;7.30;;
7523;SDS011;3803;51.666;7.630;2023-04-25T00:33:50;13.70;;;7.60;;
7523;SDS011;3803;51.666;7.630;2023-04-25T00:34:11;15.00;;;8.13;;
7523;SDS011;3803;51.666;7.630;2023-04-25T00:34:31;12.55;;;7.97;;
7523;SDS011;3803;51.666;7.630;2023-04-25T00:34:52;10.43;;;7.73;;
7523;SDS011;3803;51.666;7.630;2023-04-25T00:35:12;10.68;;;7.68;;
7523;SDS011;3803;51.666;7.630;2023-04-25T00:36:35;11.35;;;7.70;;
7523;SDS011;3803;51.666;7.630;2023-04-25T00:36:56;10.68;;;7.13;;
7523;SDS011;3803;51.666;7.630;2023-04-25T00:37:17;11.15;;;6.90;;
7523;SDS011;3803;51.666;7.630;2023-04-25T00:37:38;12.45;;;6.95;;
7523;SDS011;3803;51.666;7.630;2023-04-25T00:37:59;12.63;;;7.33;;
7523;SDS011;3803;51.666;7.630;2023-04-25T00:38:19;11.97;;;7.50;;
7523;SDS011;3803;51.666;7.630;2023-04-25T00:38:40;10.52;;;7.32;;
7523;SDS011;3803;51.666;7.630;2023-04-25T00:39:00;10.27;;;7.30;;
7523;SDS011;3803;51.666;7.630;2023-04-25T00:39:21;10.65;;;7.32;;
7523;SDS011;3803;51.666;7.630;2023-04-25T00:39:41;13.60;;;7.65;;
7523;SDS011;3803;51.666;7.630;2023-04-25T00:40:03;15.30;;;7.90;;
7523;SDS011;3803;51.666;7.630;2023-04-25T00:40:26;16.17;;;7.95;;
7523;SDS011;3803;51.666;7.630;2023-04-25T00:40:47;14.63;;;8.02;;
7523;SDS011;3803;51.666;7.630;2023-04-25T00:41:07;14.25;;;7.68;;
7523;SDS011;3803;51.666;7.630;2023-04-25T00:41:28;13.40;;;7.80;;
7523;SDS011;3803;51.666;7.630;2023-04-25T00:41:50;11.85;;;7.55;;
7523;SDS011;3803;51.666;7.630;2023-04-25T00:42:13;12.38;;;7.80;;
7523;SDS011;3803;51.666;7.630;2023-04-25T00:42:34;12.60;;;7.90;;
7523;SDS011;3803;51.666;7.630;2023-04-25T00:42:56;13.85;;;7.78;;
7523;SDS011;3803;51.666;7.630;2023-04-25T00:43:16;13.27;;;7.80;;
7523;SDS011;3803;51.666;7.630;2023-04-25T00:43:37;13.50;;;7.38;;
7523;SDS011;3803;51.666;7.630;2023-04-25T00:44:00;13.57;;;7.40;;
7523;SDS011;3803;51.666;7.630;2023-04-25T00:44:21;13.63;;;7.15;;
7523;SDS011;3803;51.666;7.630;2023-04-25T00:44:43;15.15;;;7.53;;
7523;SDS011;3803;51.666;7.630;2023-04-25T00:45:05;11.52;;;7.38;;
7523;SDS011;3803;51.666;7.630;2023-04-25T00:45:28;11.05;;;7.82;;
7523;SDS011;3803;51.666;7.630;2023-04-25T00:45:51;11.30;;;7.95;;
7523;SDS011;3803;51.666;7.630;2023-04-25T00:46:12;11.75;;;7.70;;
7523;SDS011;3803;51.666;7.630;2023-04-25T00:46:34;12.45;;;7.40;;
7523;SDS011;3803;51.666;7.630;2023-04-25T00:46:55;11.80;;;7.10;;
7523;SDS011;3803;51.666;7.630;2023-04-25T00:47:17;13.38;;;7.32;;
7523;SDS011;3803;51.666;7.630;2023-04-25T00:47:37;12.90;;;7.37;;
7523;SDS011;3803;51.666;7.630;2023-04-25T00:47:58;14.93;;;7.65;;
7523;SDS011;3803;51.666;7.630;2023-04-25T00:48:22;12.77;;;7.40;;
7523;SDS011;3803;51.666;7.630;2023-04-25T00:48:43;11.70;;;7.32;;
7523;SDS011;3803;51.666;7.630;2023-04-25T00:49:04;11.02;;;7.50;;
7523;SDS011;3803;51.666;7.630;2023-04-25T00:49:25;12.05;;;8.02;;
7523;SDS011;3803;51.666;7.630;2023-04-25T00:49:45;11.63;;;7.90;;
7523;SDS011;3803;51.666;7.630;2023-04-25T00:50:06;11.18;;;7.53;;
7523;SDS011;3803;51.666;7.630;2023-04-25T00:50:27;11.55;;;7.25;;
7523;SDS011;3803;51.666;7.630;2023-04-25T00:50:51;12.20;;;7.60;;
7523;SDS011;3803;51.666;7.630;2023-04-25T00:51:15;11.68;;;7.50;;
7523;SDS011;3803;51.666;7.630;2023-04-25T00:51:39;12.15;;;7.25;;
7523;SDS011;3803;51.666;7.630;2023-04-25T00:51:59;12.20;;;7.05;;
7523;SDS011;3803;51.666;7.630;2023-04-25T00:52:20;12.23;;;7.18;;
7523;SDS011;3803;51.666;7.630;2023-04-25T00:52:42;11.35;;;7.00;;
7523;SDS011;3803;51.666;7.630;2023-04-25T00:53:04;11.50;;;7.05;;
7523;SDS011;3803;51.666;7.630;2023-04-25T00:53:26;12.25;;;7.40;;
7523;SDS011;3803;51.666;7.630;2023-04-25T00:53:48;12.10;;;7.50;;
7523;SDS011;3803;51.666;7.630;2023-04-25T00:54:11;12.52;;;7.10;;
7523;SDS011;3803;51.666;7.630;2023-04-25T00:54:32;12.40;;;7.13;;
7523;SDS011;3803;51.666;7.630;2023-04-25T00:54:53;12.20;;;7.50;;
7523;SDS011;3803;51.666;7.630;2023-04-25T00:55:14;12.07;;;7.68;;
7523;SDS011;3803;51.666;7.630;2023-04-25T00:55:36;11.77;;;7.45;;
7523;SDS011;3803;51.666;7.630;2023-04-25T00:55:56;11.40;;;6.88;;
7523;SDS011;3803;51.666;7.630;2023-04-25T00:56:17;11.73;;;7.10;;
7523;SDS011;3803;51.666;7.630;2023-04-25T00:56:38;11.60;;;7.22;;
7523;SDS011;3803;51.666;7.630;2023-04-25T00:56:59;10.95;;;7.68;;
7523;SDS011;3803;51.666;7.630;2023-04-25T00:57:21;9.73;;;7.47;;
7523;SDS011;3803;51.666;7.630;2023-04-25T00:57:42;8.60;;;7.50;;
7523;SDS011;3803;51.666;7.630;2023-04-25T00:58:03;9.05;;;7.78;;
7523;SDS011;3803;51.666;7.630;2023-04-25T00:58:23;10.27;;;7.93;;
7523;SDS011;3803;51.666;7.630;2023-04-25T00:58:45;11.58;;;7.82;;
7523;SDS011;3803;51.666;7.630;2023-04-25T00:59:05;12.27;;;7.70;;
7523;SDS011;3803;51.666;7.630;2023-04-25T00:59:27;12.50;;;7.35;;
7523;SDS011;3803;51.666;7.630;2023-04-25T00:59:48;12.60;;;7.65;;
7523;SDS011;3803;51.666;7.630;2023-04-25T01:00:11;11.63;;;7.70;;
7523;SDS011;3803;51.666;7.630;2023-04-25T01:00:34;13.18;;;7.93;;
7523;SDS011;3803;51.666;7.630;2023-04-25T01:00:55;14.00;;;8.40;;
7523;SDS011;3803;51.666;7.630;2023-04-25T01:01:17;13.07;;;8.13;;
7523;SDS011;3803;51.666;7.630;2023-04-25T01:01:38;12.20;;;7.87;;
7523;SDS011;3803;51.666;7.630;2023-04-25T01:02:12;11.20;;;7.60;;
7523;SDS011;3803;51.666;7.630;2023-04-25T01:02:33;11.38;;;7.90;;
7523;SDS011;3803;51.666;7.630;2023-04-25T01:02:55;12.88;;;8.13;;
7523;SDS011;3803;51.666;7.630;2023-04-25T01:03:16;14.43;;;7.90;;
7523;SDS011;3803;51.666;7.630;2023-04-25T01:03:39;14.27;;;7.80;;
7523;SDS011;3803;51.666;7.630;2023-04-25T01:04:10;11.02;;;7.38;;
7523;SDS011;3803;51.666;7.630;2023-04-25T01:04:31;11.35;;;7.55;;
7523;SDS011;3803;51.666;7.630;2023-04-25T01:04:52;11.05;;;7.50;;
7523;SDS011;3803;51.666;7.630;2023-04-25T01:05:13;11.57;;;7.38;;
7523;SDS011;3803;51.666;7.630;2023-04-25T01:05:34;10.25;;;7.20;;
7523;SDS011;3803;51.666;7.630;2023-04-25T01:05:54;11.70;;;7.40;;
7523;SDS011;3803;51.666;7.630;2023-04-25T01:06:16;11.57;;;7.47;;
7523;SDS011;3803;51.666;7.630;2023-04-25T01:06:37;11.02;;;7.40;;
7523;SDS011;3803;51.666;7.630;2023-04-25T01:06:58;9.40;;;7.40;;
7523;SDS011;3803;51.666;7.630;2023-04-25T01:07:19;9.15;;;7.80;;
7523;SDS011;3803;51.666;7.630;2023-04-25T01:07:41;9.38;;;7.43;;
7523;SDS011;3803;51.666;7.630;2023-04-25T01:08:02;10.20;;;7.43;;
7523;SDS011;3803;51.666;7.630;2023-04-25T01:08:23;11.07;;;7.30;;
7523;SDS011;3803;51.666;7.630;2023-04-25T01:08:47;10.93;;;7.53;;
7523;SDS011;3803;51.666;7.630;2023-04-25T01:09:08;9.95;;;7.65;;
7523;SDS011;3803;51.666;7.630;2023-04-25T01:09:30;9.38;;;7.47;;
7523;SDS011;3803;51.666;7.630;2023-04-25T01:09:52;10.55;;;7.68;;
7523;SDS011;3803;51.666;7.630;2023-04-25T01:10:12;10.77;;;7.70;;
7523;SDS011;3803;51.666;7.630;2023-04-25T01:10:33;12.13;;;7.75;;
7523;SDS011;3803;51.666;7.630;2023-04-25T01:10:53;11.27;;;7.40;;
7523;SDS011;3803;51.666;7.630;2023-04-25T01:11:14;12.50;;;7.95;;
7523;SDS011;3803;51.666;7.630;2023-04-25T01:11:35;11.47;;;8.07;;
7523;SDS011;3803;51.666;7.630;2023-04-25T01:11:56;12.13;;;8.35;;
7523;SDS011;3803;51.666;7.630;2023-04-25T01:12:18;12.50;;;8.27;;
7523;SDS011;3803;51.666;7.630;2023-04-25T01:12:39;12.85;;;8.40;;
7523;SDS011;3803;51.666;7.630;2023-04-25T01:13:00;12.03;;;8.27;;
7523;SDS011;3803;51.666;7.630;2023-04-25T01:13:20;11.57;;;7.90;;
7523;SDS011;3803;51.666;7.630;2023-04-25T01:13:41;12.00;;;7.57;;
7523;SDS011;3803;51.666;7.630;2023-04-25T01:14:02;11.63;;;7.35;;
7523;SDS011;3803;51.666;7.630;2023-04-25T01:14:22;11.17;;;7.30;;
7523;SDS011;3803;51.666;7.630;2023-04-25T01:14:43;11.75;;;7.80;;
7523;SDS011;3803;51.666;7.630;2023-04-25T01:15:04;12.35;;;8.40;;
7523;SDS011;3803;51.666;7.630;2023-04-25T01:15:25;12.40;;;8.60;;
7523;SDS011;3803;51.666;7.630;2023-04-25T01:15:46;13.88;;;8.80;;
7523;SDS011;3803;51.666;7.630;2023-04-25T01:16:08;14.32;;;8.73;;
7523;SDS011;3803;51.666;7.630;2023-04-25T01:16:28;13.13;;;8.43;;
7523;SDS011;3803;51.666;7.630;2023-04-25T01:16:50;12.15;;;8.20;;
7523;SDS011;3803;51.666;7.630;2023-04-25T01:17:11;11.43;;;8.00;;
7523;SDS011;3803;51.666;7.630;2023-04-25T01:17:32;11.00;;;8.15;;
7523;SDS011;3803;51.666;7.630;2023-04-25T01:17:55;10.90;;;7.90;;
7523;SDS011;3803;51.666;7.630;2023-04-25T01:18:16;12.18;;;8.27;;
7523;SDS011;3803;51.666;7.630;2023-04-25T01:18:38;13.18;;;8.30;;
7523;SDS011;3803;51.666;7.630;2023-04-25T01:18:59;15.57;;;8.63;;
7523;SDS011;3803;51.666;7.630;2023-04-25T01:19:20;15.47;;;8.70;;
7523;SDS011;3803;51.666;7.630;2023-04-25T01:19:41;13.95;;;8.70;;
7523;SDS011;3803;51.666;7.630;2023-04-25T01:20:04;14.55;;;9.27;;
7523;SDS011;3803;51.666;7.630;2023-04-25T01:20:26;14.43;;;9.07;;
7523;SDS011;3803;51.666;7.630;2023-04-25T01:20:49;13.55;;;9.00;;
7523;SDS011;3803;51.666;7.630;2023-04-25T01:21:12;14.05;;;8.77;;
7523;SDS011;3803;51.666;7.630;2023-04-25T01:21:33;12.73;;;8.52;;
7523;SDS011;3803;51.666;7.630;2023-04-25T01:21:54;14.30;;;8.73;;
7523;SDS011;3803;51.666;7.630;2023-04-25T01:22:15;14.15;;;8.55;;
7523;SDS011;3803;51.666;7.630;2023-04-25T01:22:42;14.82;;;8.50;;
7523;SDS011;3803;51.666;7.630;2023-04-25T01:23:03;12.73;;;7.68;;
7523;SDS011;3803;51.666;7.630;2023-04-25T01:23:24;13.85;;;8.02;;
7523;SDS011;3803;51.666;7.630;2023-04-25T01:23:46;13.88;;;8.48;;
7523;SDS011;3803;51.666;7.630;2023-04-25T01:24:06;14.32;;;8.98;;
7523;SDS011;3803;51.666;7.630;2023-04-25T01:24:28;14.23;;;8.73;;
7523;SDS011;3803;51.666;7.630;2023-04-25T01:24:49;14.98;;;8.75;;
7523;SDS011;3803;51.666;7.630;2023-04-25T01:25:10;13.02;;;8.57;;
7523;SDS011;3803;51.666;7.630;2023-04-25T01:25:31;13.45;;;9.02;;
7523;SDS011;3803;51.666;7.630;2023-04-25T01:25:52;13.75;;;8.88;;
7523;SDS011;3803;51.666;7.630;2023-04-25T01:26:13;14.32;;;8.57;;
7523;SDS011;3803;51.666;7.630;2023-04-25T01:26:34;13.70;;;8.57;;
7523;SDS011;3803;51.666;7.630;2023-04-25T01:26:56;12.90;;;8.70;;
7523;SDS011;3803;51.666;7.630;2023-04-25T01:27:19;15.48;;;8.73;;
7523;SDS011;3803;51.666;7.630;2023-04-25T01:27:41;15.80;;;8.57;;
7523;SDS011;3803;51.666;7.630;2023-04-25T01:28:02;16.45;;;8.80;;
7523;SDS011;3803;51.666;7.630;2023-04-25T01:28:23;15.07;;;9.15;;
7523;SDS011;3803;51.666;7.630;2023-04-25T01:28:43;14.15;;;9.23;;
7523;SDS011;3803;51.666;7.630;2023-04-25T01:29:06;14.75;;;8.63;;
7523;SDS011;3803;51.666;7.630;2023-04-25T01:29:30;13.07;;;8.30;;
7523;SDS011;3803;51.666;7.630;2023-04-25T01:29:53;12.63;;;8.38;;
7523;SDS011;3803;51.666;7.630;2023-04-25T01:30:15;11.68;;;8.40;;
7523;SDS011;3803;51.666;7.630;2023-04-25T01:30:36;12.05;;;8.55;;
7523;SDS011;3803;51.666;7.630;2023-04-25T01:30:57;12.02;;;8.65;;
7523;SDS011;3803;51.666;7.630;2023-04-25T01:31:18;13.38;;;8.65;;
7523;SDS011;3803;51.666;7.630;2023-04-25T01:31:39;15.90;;;8.65;;
7523;SDS011;3803;51.666;7.630;2023-04-25T01:32:01;16.80;;;8.50;;
7523;SDS011;3803;51.666;7.630;2023-04-25T01:32:22;14.25;;;8.80;;
7523;SDS011;3803;51.666;7.630;2023-04-25T01:32:43;14.98;;;9.20;;
7523;SDS011;3803;51.666;7.630;2023-04-25T01:33:04;16.33;;;9.35;;
7523;SDS011;3803;51.666;7.630;2023-04-25T01:33:27;17.10;;;8.80;;
7523;SDS011;3803;51.666;7.630;2023-04-25T01:33:49;14.80;;;8.43;;
7523;SDS011;3803;51.666;7.630;2023-04-25T01:34:10;12.17;;;8.30;;
7523;SDS011;3803;51.666;7.630;2023-04-25T01:34:31;13.55;;;8.77;;
7523;SDS011;3803;51.666;7.630;2023-04-25T01:34:52;15.75;;;9.10;;
7523;SDS011;3803;51.666;7.630;2023-04-25T01:35:13;15.27;;;8.77;;
7523;SDS011;3803;51.666;7.630;2023-04-25T01:35:34;13.85;;;8.77;;
7523;SDS011;3803;51.666;7.630;2023-04-25T01:35:55;13.07;;;8.77;;
7523;SDS011;3803;51.666;7.630;2023-04-25T01:36:15;12.70;;;9.30;;
7523;SDS011;3803;51.666;7.630;2023-04-25T01:36:36;13.40;;;9.38;;
7523;SDS011;3803;51.666;7.630;2023-04-25T01:36:57;14.50;;;9.25;;
7523;SDS011;3803;51.666;7.630;2023-04-25T01:37:20;13.57;;;8.65;;
7523;SDS011;3803;51.666;7.630;2023-04-25T01:37:41;13.48;;;8.50;;
7523;SDS011;3803;51.666;7.630;2023-04-25T01:38:05;13.52;;;8.50;;
7523;SDS011;3803;51.666;7.630;2023-04-25T01:38:27;15.20;;;9.00;;
7523;SDS011;3803;51.666;7.630;2023-04-25T01:38:48;13.35;;;8.90;;
7523;SDS011;3803;51.666;7.630;2023-04-25T01:39:09;13.65;;;9.10;;
7523;SDS011;3803;51.666;7.630;2023-04-25T01:39:30;13.93;;;8.93;;
7523;SDS011;3803;51.666;7.630;2023-04-25T01:39:51;13.77;;;8.90;;
7523;SDS011;3803;51.666;7.630;2023-04-25T01:40:12;13.43;;;8.90;;
7523;SDS011;3803;51.666;7.630;2023-04-25T01:40:33;12.88;;;8.70;;
7523;SDS011;3803;51.666;7.630;2023-04-25T01:40:54;13.00;;;8.57;;
7523;SDS011;3803;51.666;7.630;2023-04-25T01:41:16;13.10;;;8.63;;
7523;SDS011;3803;51.666;7.630;2023-04-25T01:41:38;11.82;;;8.63;;
7523;SDS011;3803;51.666;7.630;2023-04-25T01:41:59;14.35;;;8.80;;
7523;SDS011;3803;51.666;7.630;2023-04-25T01:42:20;13.65;;;8.70;;
7523;SDS011;3803;51.666;7.630;2023-04-25T01:42:42;14.85;;;8.77;;
7523;SDS011;3803;51.666;7.630;2023-04-25T01:43:03;13.75;;;9.07;;
7523;SDS011;3803;51.666;7.630;2023-04-25T01:43:24;13.00;;;9.00;;
7523;SDS011;3803;51.666;7.630;2023-04-25T01:43:46;12.00;;;8.50;;
7523;SDS011;3803;51.666;7.630;2023-04-25T01:44:07;13.10;;;8.50;;
7523;SDS011;3803;51.666;7.630;2023-04-25T01:44:28;13.60;;;8.30;;
7523;SDS011;3803;51.666;7.630;2023-04-25T01:44:48;14.90;;;8.63;;
7523;SDS011;3803;51.666;7.630;2023-04-25T01:45:09;16.30;;;8.57;;
7523;SDS011;3803;51.666;7.630;2023-04-25T01:45:31;16.17;;;8.35;;
7523;SDS011;3803;51.666;7.630;2023-04-25T01:46:03;14.70;;;8.30;;
7523;SDS011;3803;51.666;7.630;2023-04-25T01:46:24;11.88;;;8.68;;
7523;SDS011;3803;51.666;7.630;2023-04-25T01:46:45;14.40;;;8.73;;
7523;SDS011;3803;51.666;7.630;2023-04-25T01:47:05;14.70;;;8.67;;
7523;SDS011;3803;51.666;7.630;2023-04-25T01:47:26;14.70;;;8.40;;
7523;SDS011;3803;51.666;7.630;2023-04-25T01:47:48;12.13;;;8.30;;
7523;SDS011;3803;51.666;7.630;2023-04-25T01:48:10;12.70;;;8.25;;
7523;SDS011;3803;51.666;7.630;2023-04-25T01:48:33;13.40;;;8.20;;
7523;SDS011;3803;51.666;7.630;2023-04-25T01:48:54;13.10;;;8.43;;
7523;SDS011;3803;51.666;7.630;2023-04-25T01:49:14;15.18;;;9.00;;
7523;SDS011;3803;51.666;7.630;2023-04-25T01:49:37;13.95;;;9.02;;
7523;SDS011;3803;51.666;7.630;2023-04-25T01:49:58;13.88;;;8.43;;
7523;SDS011;3803;51.666;7.630;2023-04-25T01:50:19;12.60;;;8.25;;
7523;SDS011;3803;51.666;7.630;2023-04-25T01:50:40;13.38;;;8.55;;
7523;SDS011;3803;51.666;7.630;2023-04-25T01:51:01;12.73;;;8.85;;
7523;SDS011;3803;51.666;7.630;2023-04-25T01:51:23;15.18;;;8.93;;
7523;SDS011;3803;51.666;7.630;2023-04-25T01:51:43;14.10;;;8.50;;
7523;SDS011;3803;51.666;7.630;2023-04-25T01:52:04;13.70;;;8.20;;
7523;SDS011;3803;51.666;7.630;2023-04-25T01:52:25;10.50;;;8.38;;
7523;SDS011;3803;51.666;7.630;2023-04-25T01:52:45;12.52;;;8.85;;
7523;SDS011;3803;51.666;7.630;2023-04-25T01:53:07;15.50;;;9.30;;
7523;SDS011;3803;51.666;7.630;2023-04-25T01:53:30;17.23;;;9.00;;
7523;SDS011;3803;51.666;7.630;2023-04-25T01:53:51;17.70;;;9.10;;
7523;SDS011;3803;51.666;7.630;2023-04-25T01:54:12;15.90;;;8.43;;
7523;SDS011;3803;51.666;7.630;2023-04-25T01:54:33;13.43;;;8.20;;
7523;SDS011;3803;51.666;7.630;2023-04-25T01:54:55;14.18;;;8.18;;
7523;SDS011;3803;51.666;7.630;2023-04-25T01:55:17;13.35;;;8.02;;
7523;SDS011;3803;51.666;7.630;2023-04-25T01:55:53;12.13;;;7.85;;
7523;SDS011;3803;51.666;7.630;2023-04-25T01:56:17;12.55;;;8.25;;
7523;SDS011;3803;51.666;7.630;2023-04-25T01:56:38;12.32;;;8.10;;
7523;SDS011;3803;51.666;7.630;2023-04-25T01:57:01;12.52;;;7.70;;
7523;SDS011;3803;51.666;7.630;2023-04-25T01:57:22;14.48;;;8.05;;
7523;SDS011;3803;51.666;7.630;2023-04-25T01:57:43;13.80;;;8.00;;
7523;SDS011;3803;51.666;7.630;2023-04-25T01:58:04;12.73;;;8.15;;
7523;SDS011;3803;51.666;7.630;2023-04-25T01:59:02;14.98;;;7.68;;
7523;SDS011;3803;51.666;7.630;2023-04-25T01:59:43;12.63;;;7.47;;
7523;SDS011;3803;51.666;7.630;2023-04-25T02:00:36;13.35;;;7.80;;
7523;SDS011;3803;51.666;7.630;2023-04-25T02:01:01;13.65;;;7.63;;
7523;SDS011;3803;51.666;7.630;2023-04-25T02:01:27;14.65;;;8.25;;
7523;SDS011;3803;51.666;7.630;2023-04-25T02:02:05;14.23;;;8.40;;
7523;SDS011;3803;51.666;7.630;2023-04-25T02:02:28;14.27;;;7.55;;
7523;SDS011;3803;51.666;7.630;2023-04-25T02:02:48;13.27;;;7.60;;
7523;SDS011;3803;51.666;7.630;2023-04-25T02:03:19;11.93;;;7.25;;
7523;SDS011;3803;51.666;7.630;2023-04-25T02:03:40;11.75;;;7.25;;
7523;SDS011;3803;51.666;7.630;2023-04-25T02:04:06;12.95;;;7.70;;
7523;SDS011;3803;51.666;7.630;2023-04-25T02:04:30;11.73;;;8.13;;
7523;SDS011;3803;51.666;7.630;2023-04-25T02:04:51;10.60;;;8.00;;
7523;SDS011;3803;51.666;7.630;2023-04-25T02:05:11;10.05;;;7.60;;
7523;SDS011;3803;51.666;7.630;2023-04-25T02:05:34;9.43;;;6.90;;
7523;SDS011;3803;51.666;7.630;2023-04-25T02:05:56;11.60;;;7.05;;
7523;SDS011;3803;51.666;7.630;2023-04-25T02:06:18;12.82;;;7.43;;
7523;SDS011;3803;51.666;7.630;2023-04-25T02:06:40;13.20;;;7.78;;
7523;SDS011;3803;51.666;7.630;2023-04-25T02:07:01;13.25;;;7.88;;
7523;SDS011;3803;51.666;7.630;2023-04-25T02:07:31;13.93;;;7.05;;
7523;SDS011;3803;51.666;7.630;2023-04-25T02:07:52;12.98;;;6.90;;
7523;SDS011;3803;51.666;7.630;2023-04-25T02:08:13;11.18;;;7.20;;
7523;SDS011;3803;51.666;7.630;2023-04-25T02:08:33;11.17;;;7.20;;
7523;SDS011;3803;51.666;7.630;2023-04-25T02:08:54;10.70;;;7.10;;
7523;SDS011;3803;51.666;7.630;2023-04-25T02:09:15;10.45;;;6.90;;
7523;SDS011;3803;51.666;7.630;2023-04-25T02:09:40;12.35;;;7.10;;
7523;SDS011;3803;51.666;7.630;2023-04-25T02:10:01;12.30;;;7.10;;
7523;SDS011;3803;51.666;7.630;2023-04-25T02:10:26;12.82;;;7.13;;
7523;SDS011;3803;51.666;7.630;2023-04-25T02:11:01;10.25;;;7.00;;
7523;SDS011;3803;51.666;7.630;2023-04-25T02:11:30;10.95;;;6.82;;
7523;SDS011;3803;51.666;7.630;2023-04-25T02:12:09;12.98;;;6.68;;
7523;SDS011;3803;51.666;7.630;2023-04-25T02:12:49;12.50;;;6.80;;
7523;SDS011;3803;51.666;7.630;2023-04-25T02:13:31;12.70;;;7.28;;
7523;SDS011;3803;51.666;7.630;2023-04-25T02:13:58;11.25;;;6.93;;
7523;SDS011;3803;51.666;7.630;2023-04-25T02:14:34;11.45;;;6.70;;
7523;SDS011;3803;51.666;7.630;2023-04-25T02:15:14;12.30;;;7.13;;
7523;SDS011;3803;51.666;7.630;2023-04-25T02:15:42;11.02;;;7.13;;
7523;SDS011;3803;51.666;7.630;2023-04-25T02:16:09;11.18;;;7.10;;
7523;SDS011;3803;51.666;7.630;2023-04-25T02:16:32;11.45;;;7.20;;
7523;SDS011;3803;51.666;7.630;2023-04-25T02:16:54;12.30;;;7.03;;
7523;SDS011;3803;51.666;7.630;2023-04-25T02:17:15;12.97;;;6.90;;
7523;SDS011;3803;51.666;7.630;2023-04-25T02:17:36;14.50;;;7.30;;
7523;SDS011;3803;51.666;7.630;2023-04-25T02:17:57;12.83;;;7.30;;
7523;SDS011;3803;51.666;7.630;2023-04-25T02:18:26;10.65;;;7.30;;
7523;SDS011;3803;51.666;7.630;2023-04-25T02:18:47;9.60;;;7.20;;
7523;SDS011;3803;51.666;7.630;2023-04-25T02:19:07;10.03;;;7.13;;
7523;SDS011;3803;51.666;7.630;2023-04-25T02:19:28;10.53;;;6.70;;